Time;durP1;ratioP1;P1;durP2;ratioP2;P2;SDS_P1;SDS_P2;PMS_P1;PMS_P2;Temp;Humidity;BMP_temperature;BMP_pressure;BME280_temperature;BME280_humidity;BME280_pressure;Samples;Min_cycle;Max_cycle;Signal;HPM_P1;HPM_P2
2022/09/06 00:00:33;;;;;;;;;7.25;6.00;;;;;23.04;56.91;101119.81;5018769;28;46401;-83
2022/09/06 00:02:59;;;;;;;;;4.25;4.00;;;;;23.01;56.83;101121.75;5018502;28;45810;-83
2022/09/06 00:05:30;;;;;;;;;4.50;4.50;;;;;23.00;56.88;101120.88;5018593;28;45473;-83
2022/09/06 00:08:00;;;;;;;;;5.25;5.25;;;;;22.97;56.56;101123.72;5019571;28;45190;-82
2022/09/06 00:10:27;;;;;;;;;5.75;3.50;;;;;22.92;56.58;101115.00;5018137;28;48261;-82
2022/09/06 00:12:52;;;;;;;;;3.75;3.75;;;;;22.87;56.83;101122.41;5018162;28;45936;-83
2022/09/06 00:15:18;;;;;;;;;4.50;4.50;;;;;22.85;56.92;101130.56;5018604;28;45470;-82
2022/09/06 00:17:44;;;;;;;;;3.75;3.75;;;;;22.81;56.51;101126.25;5019252;28;45388;-83
2022/09/06 00:20:09;;;;;;;;;3.75;3.75;;;;;22.79;56.91;101130.81;5018267;28;48110;-83
2022/09/06 00:22:37;;;;;;;;;6.50;5.25;;;;;22.74;56.75;101122.13;5000714;28;45277;-82
2022/09/06 00:25:05;;;;;;;;;4.25;4.00;;;;;22.73;57.10;101125.75;4998859;28;45254;-82
2022/09/06 00:27:31;;;;;;;;;4.50;4.50;;;;;22.72;57.43;101132.09;4999708;28;46280;-83
2022/09/06 00:29:56;;;;;;;;;5.00;4.25;;;;;22.72;57.15;101136.56;4999785;28;45338;-82
2022/09/06 00:32:22;;;;;;;;;4.25;4.25;;;;;22.73;57.36;101141.00;5000587;28;45381;-83
2022/09/06 00:34:47;;;;;;;;;3.67;3.67;;;;;22.69;57.27;101132.22;5003596;28;45353;-83
2022/09/06 00:37:13;;;;;;;;;5.25;5.00;;;;;22.71;57.21;101137.50;5002112;28;45701;-81
2022/09/06 00:39:38;;;;;;;;;6.00;5.00;;;;;22.69;56.79;101140.25;5006232;28;45919;-82
2022/09/06 00:42:08;;;;;;;;;6.00;6.00;;;;;22.66;57.24;101143.97;5003506;28;45453;-82
2022/09/06 00:44:34;;;;;;;;;5.00;5.00;;;;;22.64;57.23;101140.50;5003260;28;45267;-82
2022/09/06 00:47:00;;;;;;;;;5.50;4.50;;;;;22.61;57.06;101135.28;5021150;28;45474;-83
2022/09/06 00:49:33;;;;;;;;;4.75;4.75;;;;;22.58;57.54;101132.72;5021349;28;47004;-82
2022/09/06 00:52:12;;;;;;;;;5.00;4.00;;;;;22.59;57.64;101134.47;5021360;28;45372;-81
2022/09/06 00:54:38;;;;;;;;;3.33;3.33;;;;;22.58;57.33;101139.91;5021241;28;45565;-82
2022/09/06 00:57:04;;;;;;;;;5.00;5.00;;;;;22.56;57.56;101128.38;5021278;28;45518;-82
2022/09/06 00:59:33;;;;;;;;;6.75;6.00;;;;;22.60;57.33;101132.66;5021004;28;47039;-82
2022/09/06 01:01:59;;;;;;;;;6.00;6.00;;;;;22.60;57.49;101124.63;5022728;28;45300;-83
2022/09/06 01:04:26;;;;;;;;;7.00;5.75;;;;;22.57;57.43;101138.19;5021239;28;45254;-82
2022/09/06 01:07:08;;;;;;;;;6.25;5.50;;;;;22.54;57.28;101135.66;5022265;28;45414;-83
2022/09/06 01:09:56;;;;;;;;;4.67;4.67;;;;;22.52;57.42;101130.34;5022117;28;46209;-82
2022/09/06 01:12:31;;;;;;;;;3.67;3.67;;;;;22.46;57.61;101134.19;5022199;28;45286;-82
2022/09/06 01:15:24;;;;;;;;;5.50;5.00;;;;;22.46;57.60;101139.56;5012001;28;45331;-82
2022/09/06 01:17:59;;;;;;;;;5.50;5.50;;;;;22.47;57.66;101140.41;5001055;28;45399;-82
2022/09/06 01:21:03;;;;;;;;;5.75;4.75;;;;;22.45;57.73;101134.25;5003706;28;46152;-83
2022/09/06 01:23:57;;;;;;;;;6.00;5.75;;;;;22.46;57.88;101136.88;5000201;28;45710;-83
2022/09/06 01:26:31;;;;;;;;;6.75;4.00;;;;;22.45;57.66;101136.94;4997292;28;45328;-82
2022/09/06 01:28:57;;;;;;;;;6.50;6.50;;;;;22.40;57.55;101126.44;5010508;28;45679;-82
2022/09/06 01:31:47;;;;;;;;;5.00;5.00;;;;;22.41;57.71;101133.53;5012270;28;47150;-83
2022/09/06 01:34:33;;;;;;;;;7.00;5.75;;;;;22.37;57.63;101129.25;5022025;28;45324;-82
2022/09/06 01:37:07;;;;;;;;;4.50;4.50;;;;;22.35;57.61;101133.81;5006240;28;45830;-83
2022/09/06 01:39:35;;;;;;;;;5.25;4.75;;;;;22.34;57.93;101128.50;5006355;28;45357;-82
2022/09/06 01:42:10;;;;;;;;;5.25;5.25;;;;;22.31;57.39;101131.34;5008469;28;45308;-82
2022/09/06 01:44:40;;;;;;;;;6.50;6.50;;;;;22.27;57.30;101133.31;5009514;28;44667;-82
2022/09/06 01:47:34;;;;;;;;;6.50;5.75;;;;;22.23;57.74;101135.25;5013768;28;45375;-82
2022/09/06 01:50:18;;;;;;;;;7.00;5.00;;;;;22.18;57.50;101134.59;5021350;28;45601;-82
2022/09/06 01:52:44;;;;;;;;;2.25;2.00;;;;;22.19;57.54;101141.72;5022175;28;45474;-82
2022/09/06 01:55:21;;;;;;;;;7.50;7.50;;;;;22.16;57.48;101133.78;5021862;28;45367;-83
2022/09/06 01:58:11;;;;;;;;;5.25;5.25;;;;;22.16;57.63;101127.50;5021987;28;45350;-82
2022/09/06 02:01:08;;;;;;;;;7.25;6.75;;;;;22.11;57.34;101124.19;5020347;28;45284;-82
2022/09/06 02:03:49;;;;;;;;;7.50;7.00;;;;;22.07;57.57;101118.09;5020462;28;45429;-82
2022/09/06 02:06:22;;;;;;;;;6.00;5.00;;;;;22.02;57.90;101125.47;5020431;28;45271;-83
2022/09/06 02:08:56;;;;;;;;;6.75;6.75;;;;;21.93;57.87;101123.22;5020454;28;45389;-82
2022/09/06 02:11:26;;;;;;;;;7.75;7.50;;;;;21.87;58.04;101107.41;5020047;28;46458;-82
2022/09/06 02:13:57;;;;;;;;;7.75;6.75;;;;;21.84;57.89;101113.78;5021261;28;45513;-83
2022/09/06 02:16:26;;;;;;;;;7.50;7.25;;;;;21.80;58.12;101110.34;5020266;28;45332;-82
2022/09/06 02:19:02;;;;;;;;;9.00;7.25;;;;;21.76;58.48;101121.28;5020702;28;45318;-82
2022/09/06 02:21:35;;;;;;;;;8.25;7.25;;;;;21.72;59.04;101127.72;5020051;28;45235;-82
2022/09/06 02:24:07;;;;;;;;;7.25;5.75;;;;;21.67;58.71;101121.69;5020043;28;46032;-82
2022/09/06 02:26:37;;;;;;;;;6.00;5.00;;;;;21.67;58.64;101119.00;5021650;28;45264;-83
2022/09/06 02:29:03;;;;;;;;;5.50;5.50;;;;;21.64;58.77;101116.47;5023028;28;45439;-82
2022/09/06 02:31:34;;;;;;;;;7.00;6.00;;;;;21.62;59.17;101118.34;5020614;28;46286;-81
2022/09/06 02:34:01;;;;;;;;;5.50;5.00;;;;;21.60;59.15;101115.75;5022128;28;47332;-82
2022/09/06 02:36:28;;;;;;;;;7.00;7.00;;;;;21.63;59.20;101117.41;5023325;28;45402;-83
2022/09/06 02:38:54;;;;;;;;;7.00;7.00;;;;;21.63;59.42;101114.72;5015334;28;45209;-83
2022/09/06 02:41:22;;;;;;;;;6.75;6.75;;;;;21.61;59.39;101121.97;5000495;28;45582;-83
2022/09/06 02:43:48;;;;;;;;;7.75;7.00;;;;;21.60;59.54;101123.78;5001233;28;47204;-83
2022/09/06 02:46:14;;;;;;;;;7.25;7.25;;;;;21.60;59.64;101126.47;5000927;28;45284;-83
2022/09/06 02:48:40;;;;;;;;;8.00;7.00;;;;;21.57;59.67;101127.47;5028867;28;45371;-82
2022/09/06 02:51:08;;;;;;;;;7.00;6.50;;;;;21.55;59.76;101123.09;5023512;28;45269;-82
2022/09/06 02:53:33;;;;;;;;;7.00;7.00;;;;;21.53;59.52;101117.81;5020215;28;47560;-83
2022/09/06 02:55:59;;;;;;;;;7.00;7.00;;;;;21.53;59.92;101106.22;5019727;28;45285;-81
2022/09/06 02:58:25;;;;;;;;;7.25;7.25;;;;;21.54;59.94;101095.44;5020411;28;45419;-82
2022/09/06 03:00:51;;;;;;;;;6.00;5.25;;;;;21.53;59.91;101107.09;5019994;28;45446;-83
2022/09/06 03:03:18;;;;;;;;;7.00;7.00;;;;;21.54;59.85;101107.94;5014164;28;45358;-83
2022/09/06 03:05:52;;;;;;;;;8.00;7.25;;;;;21.55;59.93;101109.72;5000990;28;45339;-82
2022/09/06 03:08:19;;;;;;;;;7.00;6.50;;;;;21.58;59.76;101115.78;5000506;28;45337;-83
2022/09/06 03:10:52;;;;;;;;;5.25;4.75;;;;;21.60;59.98;101118.41;5000111;28;45388;-83
2022/09/06 03:13:17;;;;;;;;;6.50;6.50;;;;;21.59;59.99;101116.66;4999588;28;47862;-82
2022/09/06 03:15:43;;;;;;;;;8.25;7.75;;;;;21.59;59.65;101122.88;5000671;28;45458;-82
2022/09/06 03:18:09;;;;;;;;;7.00;6.25;;;;;21.57;60.04;101115.84;4999992;28;45344;-82
2022/09/06 03:20:34;;;;;;;;;4.75;4.75;;;;;21.59;59.76;101127.38;5001353;28;45234;-82
2022/09/06 03:23:00;;;;;;;;;6.00;6.00;;;;;21.61;60.42;101144.25;4999695;28;45959;-82
2022/09/06 03:25:25;;;;;;;;;5.00;5.00;;;;;21.62;60.24;101151.34;4999264;28;45454;-82
2022/09/06 03:27:51;;;;;;;;;6.75;6.75;;;;;21.59;59.65;101147.00;5001110;28;45237;-82
2022/09/06 03:30:17;;;;;;;;;7.50;7.50;;;;;21.62;59.89;101153.16;5000087;28;45278;-81
2022/09/06 03:32:42;;;;;;;;;6.67;6.00;;;;;21.64;59.79;101148.63;5000092;28;48777;-82
2022/09/06 03:35:08;;;;;;;;;9.25;8.00;;;;;21.66;59.78;101146.75;5013173;28;45262;-82
2022/09/06 03:37:34;;;;;;;;;7.25;6.50;;;;;21.66;59.98;101161.00;4999874;28;45277;-82
2022/09/06 03:40:00;;;;;;;;;7.00;6.50;;;;;21.64;59.83;101154.84;4999693;28;45271;-82
2022/09/06 03:42:26;;;;;;;;;6.00;6.00;;;;;21.67;60.03;101169.91;5001351;28;45473;-82
2022/09/06 03:44:52;;;;;;;;;7.00;7.00;;;;;21.63;60.02;101168.34;4999097;28;45289;-82
2022/09/06 03:47:19;;;;;;;;;8.00;8.00;;;;;21.60;59.96;101174.69;5007716;28;45301;-83
2022/09/06 03:49:44;;;;;;;;;8.75;8.00;;;;;21.56;60.18;101179.28;5019912;28;45328;-82
2022/09/06 03:52:10;;;;;;;;;10.75;8.75;;;;;21.53;59.88;101182.09;5018617;28;47048;-83
2022/09/06 03:54:35;;;;;;;;;6.00;6.00;;;;;21.47;60.29;101176.16;5019860;28;45368;-83
2022/09/06 03:57:01;;;;;;;;;7.25;7.25;;;;;21.44;60.50;101190.53;5018946;28;45345;-82
2022/09/06 03:59:26;;;;;;;;;9.25;9.00;;;;;21.43;60.62;101194.13;5018565;28;45257;-82
2022/09/06 04:01:52;;;;;;;;;6.75;6.75;;;;;21.40;60.71;101186.22;5018440;28;47048;-82
2022/09/06 04:04:17;;;;;;;;;13.50;9.75;;;;;21.39;60.79;101186.31;5019767;28;45449;-83
2022/09/06 04:06:43;;;;;;;;;10.25;8.25;;;;;21.39;60.91;101189.84;5018591;28;45289;-82
2022/09/06 04:09:08;;;;;;;;;8.50;8.00;;;;;21.39;61.48;101187.19;5023233;28;45500;-82
2022/09/06 04:11:33;;;;;;;;;5.00;4.00;;;;;21.40;61.34;101185.38;5023818;28;46201;-83
2022/09/06 04:13:59;;;;;;;;;9.00;7.75;;;;;21.40;61.32;101199.63;5022202;28;45178;-83
2022/09/06 04:16:24;;;;;;;;;8.00;7.00;;;;;21.42;61.80;101194.22;5023572;28;45245;-83
2022/09/06 04:18:50;;;;;;;;;8.25;7.75;;;;;21.37;61.97;101199.72;5021915;28;45414;-83
2022/09/06 04:21:16;;;;;;;;;7.00;7.00;;;;;21.38;61.79;101192.59;5021590;28;45862;-83
2022/09/06 04:23:41;;;;;;;;;9.25;8.00;;;;;21.34;61.48;101197.19;5021947;28;45425;-83
2022/09/06 04:26:07;;;;;;;;;8.75;8.25;;;;;21.33;61.54;101206.13;5023783;28;45284;-83
2022/09/06 04:28:32;;;;;;;;;8.00;6.75;;;;;21.26;61.54;101201.97;5021857;28;45375;-82
2022/09/06 04:31:00;;;;;;;;;8.50;7.50;;;;;21.25;61.81;101211.81;5022924;28;46301;-83
2022/09/06 04:33:27;;;;;;;;;8.25;8.25;;;;;21.20;61.80;101213.81;5021703;28;45257;-81
2022/09/06 04:35:57;;;;;;;;;8.00;8.00;;;;;21.17;61.75;101221.97;5015875;28;45397;-83
2022/09/06 04:38:27;;;;;;;;;6.75;6.75;;;;;21.15;61.53;101221.16;5003181;28;45541;-83
2022/09/06 04:40:54;;;;;;;;;8.25;7.25;;;;;21.09;61.75;101213.34;5003027;28;46187;-83
2022/09/06 04:43:20;;;;;;;;;7.50;7.50;;;;;21.05;61.25;101206.38;5001432;28;45313;-82
2022/09/06 04:45:46;;;;;;;;;5.75;5.75;;;;;21.05;61.39;101222.47;5001667;28;45519;-83
2022/09/06 04:48:12;;;;;;;;;7.25;7.25;;;;;21.01;61.39;101221.72;5017445;28;45388;-83
2022/09/06 04:50:37;;;;;;;;;9.75;7.75;;;;;20.99;61.16;101228.94;5022518;28;45437;-83
2022/09/06 04:53:03;;;;;;;;;7.75;7.00;;;;;20.93;61.63;101216.66;5022438;28;45241;-83
2022/09/06 04:55:30;;;;;;;;;10.00;9.00;;;;;20.95;61.16;101221.94;5021241;28;45322;-83
2022/09/06 04:57:58;;;;;;;;;9.50;8.75;;;;;20.94;61.26;101225.56;5022175;28;45487;-82
2022/09/06 05:00:28;;;;;;;;;8.75;8.00;;;;;20.96;61.46;101226.38;5022320;28;45396;-82
2022/09/06 05:02:57;;;;;;;;;7.25;7.25;;;;;20.90;61.46;101219.47;5022321;28;45342;-83
2022/09/06 05:05:22;;;;;;;;;8.00;8.00;;;;;20.92;61.54;101227.41;5022096;28;45375;-83
2022/09/06 05:07:52;;;;;;;;;7.00;7.00;;;;;20.96;61.42;101230.88;5022063;28;45565;-83
2022/09/06 05:10:19;;;;;;;;;7.00;7.00;;;;;20.96;60.95;101234.41;5020716;28;46346;-83
2022/09/06 05:12:49;;;;;;;;;9.00;9.00;;;;;20.91;60.93;101231.03;5021105;28;45463;-82
2022/09/06 05:15:15;;;;;;;;;8.25;8.25;;;;;20.95;61.11;101229.09;5022167;28;45322;-83
2022/09/06 05:17:41;;;;;;;;;11.50;10.50;;;;;20.97;60.66;101227.25;5001874;28;46330;-82
2022/09/06 05:20:07;;;;;;;;;6.75;6.75;;;;;20.96;60.72;101225.50;5000720;28;48082;-83
2022/09/06 05:22:32;;;;;;;;;6.25;6.25;;;;;20.93;60.88;101231.84;5005956;28;45355;-82
2022/09/06 05:24:58;;;;;;;;;8.25;7.00;;;;;20.92;60.40;101238.13;5022506;28;45249;-83
2022/09/06 05:27:23;;;;;;;;;5.25;5.00;;;;;20.87;60.55;101232.06;5021216;28;45555;-82
2022/09/06 05:29:49;;;;;;;;;7.50;7.25;;;;;20.89;60.79;101244.47;5020785;28;46226;-83
2022/09/06 05:32:14;;;;;;;;;6.00;6.00;;;;;20.89;60.83;101232.88;5025411;28;45376;-84
2022/09/06 05:34:39;;;;;;;;;9.00;8.50;;;;;20.90;60.75;101224.81;5027597;28;45289;-81
2022/09/06 05:37:05;;;;;;;;;9.00;8.00;;;;;20.94;60.49;101220.19;5025406;28;44940;-83
2022/09/06 05:39:30;;;;;;;;;7.00;7.00;;;;;20.92;60.34;101220.25;5010328;28;48274;-82
2022/09/06 05:41:56;;;;;;;;;8.50;7.25;;;;;20.96;60.55;101229.06;5004205;28;45400;-83
2022/09/06 05:44:21;;;;;;;;;8.00;8.00;;;;;20.97;60.13;101221.88;5008383;28;45146;-82
2022/09/06 05:46:46;;;;;;;;;7.75;6.75;;;;;21.02;60.38;101228.81;5005326;28;45456;-83
2022/09/06 05:49:12;;;;;;;;;6.00;6.00;;;;;21.07;60.46;101228.63;5020213;28;46899;-83
2022/09/06 05:51:39;;;;;;;;;6.25;5.50;;;;;21.12;60.16;101216.81;5021581;28;45177;-83
2022/09/06 05:54:05;;;;;;;;;7.00;6.25;;;;;21.18;60.10;101221.03;5021632;28;45281;-83
2022/09/06 05:56:30;;;;;;;;;6.75;6.75;;;;;21.22;60.12;101211.06;5015526;28;45438;-83
2022/09/06 05:58:56;;;;;;;;;5.75;5.75;;;;;21.27;59.51;101209.94;5001684;28;46250;-83
2022/09/06 06:01:24;;;;;;;;;4.50;4.50;;;;;21.39;59.50;101218.47;5001434;28;45387;-83
2022/09/06 06:03:54;;;;;;;;;7.25;6.25;;;;;21.47;59.28;101222.56;5002172;28;45311;-83
2022/09/06 06:06:21;;;;;;;;;10.75;8.50;;;;;21.50;59.18;101219.75;5001284;28;45178;-82
2022/09/06 06:08:46;;;;;;;;;8.75;8.75;;;;;21.56;58.82;101218.63;4999891;28;47600;-83
2022/09/06 06:11:13;;;;;;;;;8.50;7.75;;;;;21.63;58.72;101228.16;5001295;28;45709;-83
2022/09/06 06:13:38;;;;;;;;;7.00;7.00;;;;;21.72;58.74;101233.09;5000348;28;45518;-82
2022/09/06 06:16:10;;;;;;;;;7.75;7.75;;;;;21.75;58.68;101214.22;5000141;28;45526;-83
2022/09/06 06:18:35;;;;;;;;;8.00;8.00;;;;;21.80;58.73;101214.88;5000121;28;47169;-83
2022/09/06 06:21:16;;;;;;;;;5.00;3.25;;;;;21.87;58.36;101210.16;4999602;28;45451;-83
2022/09/06 06:23:43;;;;;;;;;4.25;4.25;;;;;21.96;58.49;101214.22;5001526;28;45352;-83
2022/09/06 06:26:10;;;;;;;;;8.50;7.50;;;;;21.99;58.39;101206.06;5000200;28;45524;-83
2022/09/06 06:28:37;;;;;;;;;6.50;6.50;;;;;22.06;57.38;101203.97;4999631;28;47431;-83
2022/09/06 06:31:04;;;;;;;;;5.50;5.50;;;;;22.09;57.72;101209.22;4999316;28;45454;-83
2022/09/06 06:33:29;;;;;;;;;6.00;6.00;;;;;22.15;57.79;101212.47;4999957;28;45348;-83
2022/09/06 06:36:00;;;;;;;;;5.50;4.25;;;;;22.19;57.59;101206.09;4999598;28;45439;-83
2022/09/06 06:38:31;;;;;;;;;4.75;4.75;;;;;22.24;57.79;101213.94;4999598;28;48282;-83
2022/09/06 06:40:57;;;;;;;;;9.25;7.25;;;;;22.23;57.51;101206.81;4999980;28;46040;-83
2022/09/06 06:43:22;;;;;;;;;4.50;4.50;;;;;22.24;57.26;101206.75;4999902;28;45195;-83
2022/09/06 06:45:49;;;;;;;;;7.50;6.00;;;;;22.25;57.33;101212.97;4999900;28;45249;-83
2022/09/06 06:48:15;;;;;;;;;6.75;6.25;;;;;22.22;57.16;101213.13;5017429;28;45650;-82
2022/09/06 06:50:40;;;;;;;;;7.00;6.75;;;;;22.21;57.13;101217.63;5018801;28;45684;-82
2022/09/06 06:53:06;;;;;;;;;7.50;7.00;;;;;22.24;57.50;101211.25;5019495;28;45439;-82
2022/09/06 06:55:31;;;;;;;;;6.25;6.25;;;;;22.19;57.26;101207.91;5019254;28;45736;-82
2022/09/06 06:57:59;;;;;;;;;7.25;7.25;;;;;22.18;57.59;101214.16;5019132;28;47316;-82
2022/09/06 07:00:24;;;;;;;;;10.00;7.25;;;;;22.20;57.61;101217.66;5019240;28;45498;-82
2022/09/06 07:02:51;;;;;;;;;6.75;5.50;;;;;22.14;57.44;101212.56;5004293;28;45410;-83
2022/09/06 07:05:17;;;;;;;;;6.00;5.00;;;;;22.11;57.53;101210.88;4999326;28;45443;-82
2022/09/06 07:07:42;;;;;;;;;6.25;6.25;;;;;22.10;57.58;101213.63;5002459;28;45428;-83
2022/09/06 07:10:08;;;;;;;;;6.00;5.00;;;;;22.12;57.67;101214.44;4999686;28;45743;-83
2022/09/06 07:12:34;;;;;;;;;7.00;6.75;;;;;22.14;57.32;101209.88;5000880;28;45159;-83
2022/09/06 07:14:59;;;;;;;;;7.25;6.25;;;;;22.11;57.00;101199.28;4999370;28;45186;-82
2022/09/06 07:17:25;;;;;;;;;7.75;6.75;;;;;22.12;56.96;101193.84;4998679;28;47964;-83
2022/09/06 07:19:50;;;;;;;;;7.00;5.00;;;;;22.11;57.33;101180.50;4999093;28;45757;-82
2022/09/06 07:22:15;;;;;;;;;4.50;4.50;;;;;22.16;56.99;101199.94;4998807;28;45492;-83
2022/09/06 07:24:41;;;;;;;;;6.75;6.75;;;;;22.17;57.12;101201.69;5000254;28;45450;-83
2022/09/06 07:27:06;;;;;;;;;8.25;7.00;;;;;22.21;57.12;101208.66;4998537;28;48066;-83
2022/09/06 07:29:31;;;;;;;;;7.25;5.50;;;;;22.24;56.94;101219.28;5000137;28;45529;-83
2022/09/06 07:31:58;;;;;;;;;7.50;5.75;;;;;22.26;57.30;101217.38;4998588;28;45404;-83
2022/09/06 07:34:24;;;;;;;;;6.25;5.25;;;;;22.23;57.09;101213.03;4998649;28;45393;-83
2022/09/06 07:36:56;;;;;;;;;8.50;8.00;;;;;22.24;57.31;101213.94;4999613;28;45392;-83
2022/09/06 07:39:22;;;;;;;;;7.50;7.00;;;;;22.29;57.22;101222.59;5000265;28;45426;-83
2022/09/06 07:41:47;;;;;;;;;8.00;6.33;;;;;22.29;57.22;101211.88;5003194;28;45430;-83
2022/09/06 07:44:13;;;;;;;;;5.67;5.00;;;;;22.30;57.19;101218.16;5007727;28;45507;-83
2022/09/06 07:46:38;;;;;;;;;5.00;5.00;;;;;22.30;57.29;101213.66;5006428;28;47454;-83
2022/09/06 07:49:04;;;;;;;;;6.00;6.00;;;;;22.34;57.01;101217.91;5024853;28;45586;-82
2022/09/06 07:51:30;;;;;;;;;5.67;5.00;;;;;22.35;56.50;101213.44;5018253;28;45315;-83
2022/09/06 07:53:56;;;;;;;;;13.50;12.75;;;;;22.36;56.44;101213.34;5019261;28;45186;-83
2022/09/06 07:56:23;;;;;;;;;6.25;5.50;;;;;22.44;56.27;101219.25;5019177;28;46199;-83
2022/09/06 07:58:50;;;;;;;;;5.00;5.00;;;;;22.49;55.88;101223.53;5019785;28;45223;-83
2022/09/06 08:01:17;;;;;;;;;6.00;5.00;;;;;22.57;55.75;101226.75;5017879;28;45430;-83
2022/09/06 08:03:43;;;;;;;;;3.67;3.67;;;;;22.62;55.70;101228.28;5018205;28;45982;-83
2022/09/06 08:06:09;;;;;;;;;4.67;4.67;;;;;22.67;55.49;101226.25;5017694;28;46205;-83
2022/09/06 08:08:34;;;;;;;;;4.67;4.67;;;;;22.71;55.70;101226.97;5019133;28;45419;-83
2022/09/06 08:11:00;;;;;;;;;5.67;5.67;;;;;22.75;55.34;101225.88;5017659;28;45429;-83
2022/09/06 08:13:26;;;;;;;;;6.67;5.00;;;;;22.81;55.20;101220.22;5017921;28;46013;-82
2022/09/06 08:16:03;;;;;;;;;6.00;6.00;;;;;22.88;55.16;101220.78;5017530;28;47131;-84
2022/09/06 08:18:29;;;;;;;;;4.00;4.00;;;;;22.94;55.08;101225.03;5017811;28;45943;-83
2022/09/06 08:20:54;;;;;;;;;5.67;5.33;;;;;23.01;55.12;101230.03;5017221;28;45215;-83
2022/09/06 08:23:20;;;;;;;;;7.00;6.00;;;;;23.09;54.90;101226.97;5018119;28;45627;-83
2022/09/06 08:25:58;;;;;;;;;7.00;7.00;;;;;23.20;54.65;101213.03;5018988;28;45596;-83
2022/09/06 08:28:23;;;;;;;;;4.33;4.33;;;;;23.31;53.81;101210.72;5017510;28;45911;-83
2022/09/06 08:30:49;;;;;;;;;6.00;4.33;;;;;23.40;53.66;101196.81;5017941;28;45488;-83
2022/09/06 08:33:14;;;;;;;;;6.50;5.50;;;;;23.51;53.53;101204.31;5006582;28;45427;-83
2022/09/06 08:35:40;;;;;;;;;3.67;3.00;;;;;23.59;53.16;101191.38;4999104;28;45464;-82
2022/09/06 08:38:05;;;;;;;;;4.67;4.67;;;;;23.65;52.44;101195.56;4999299;28;45308;-83
2022/09/06 08:40:31;;;;;;;;;4.00;4.00;;;;;23.71;52.87;101197.91;4997969;28;45334;-83
2022/09/06 08:42:57;;;;;;;;;5.25;5.00;;;;;23.75;52.42;101195.03;4997963;28;45624;-83
2022/09/06 08:45:23;;;;;;;;;4.00;4.00;;;;;23.80;52.52;101192.13;4997641;28;47344;-83
2022/09/06 08:47:51;;;;;;;;;3.67;3.67;;;;;23.87;52.13;101196.25;5011789;28;45330;-84
2022/09/06 08:50:18;;;;;;;;;5.00;4.00;;;;;23.91;52.26;101188.88;5017398;28;45470;-83
2022/09/06 08:53:08;;;;;;;;;3.67;3.00;;;;;24.01;51.62;101191.97;5018765;28;45422;-83
2022/09/06 08:55:44;;;;;;;;;5.00;4.00;;;;;24.10;51.90;101199.53;5020614;28;47256;-83
2022/09/06 08:58:47;;;;;;;;;5.33;4.00;;;;;24.18;50.63;101203.53;5020789;28;45313;-83
2022/09/06 09:01:24;;;;;;;;;4.67;3.67;;;;;24.25;50.37;101196.03;5022019;28;45236;-83
2022/09/06 09:03:55;;;;;;;;;4.00;3.33;;;;;24.33;50.21;101201.00;5020832;28;45873;-83
2022/09/06 09:06:24;;;;;;;;;4.00;4.00;;;;;24.39;49.82;101203.34;5022098;28;45584;-83
2022/09/06 09:09:01;;;;;;;;;6.67;5.00;;;;;24.50;49.84;101200.09;5022544;28;45198;-83
2022/09/06 09:11:28;;;;;;;;;4.00;3.00;;;;;24.54;49.51;101196.28;5021382;28;45323;-84
2022/09/06 09:14:35;;;;;;;;;3.00;3.00;;;;;24.67;49.47;101194.66;5023328;28;45505;-83
2022/09/06 09:17:19;;;;;;;;;3.00;3.00;;;;;24.77;48.73;101195.88;4984533;28;47955;-83
2022/09/06 09:19:44;;;;;;;;;5.00;5.00;;;;;24.86;48.38;101199.91;5001128;28;45352;-84
2022/09/06 09:22:14;;;;;;;;;3.00;3.00;;;;;25.00;48.30;101209.91;5005755;28;45342;-84
2022/09/06 09:24:40;;;;;;;;;4.00;4.00;;;;;25.17;48.04;101211.66;5021911;28;45261;-84
2022/09/06 09:27:09;;;;;;;;;4.33;3.67;;;;;25.32;48.01;101218.84;5019351;28;48325;-84
2022/09/06 09:29:53;;;;;;;;;3.33;3.33;;;;;25.54;47.30;101223.84;5000993;28;45416;-83
2022/09/06 09:32:36;;;;;;;;;3.00;2.00;;;;;25.71;47.29;101221.06;5002074;28;45197;-84
2022/09/06 09:35:31;;;;;;;;;3.00;3.00;;;;;25.87;46.40;101221.00;5000425;28;45430;-84
2022/09/06 09:38:09;;;;;;;;;3.00;3.00;;;;;26.06;46.74;101223.47;5000650;28;47370;-84
2022/09/06 09:40:40;;;;;;;;;5.00;5.00;;;;;26.23;45.83;101222.44;5001994;28;45467;-84
2022/09/06 09:43:22;;;;;;;;;2.00;2.00;;;;;26.33;45.62;101226.31;5008114;28;44784;-84
2022/09/06 09:46:06;;;;;;;;;2.00;2.00;;;;;26.40;44.75;101206.03;5021379;28;45225;-84
2022/09/06 09:48:31;;;;;;;;;3.33;3.33;;;;;26.43;44.46;101213.06;5032525;28;48030;-84
2022/09/06 09:51:17;;;;;;;;;3.00;3.00;;;;;26.40;44.21;101211.44;5029428;28;45279;-83
2022/09/06 09:53:53;;;;;;;;;3.33;3.00;;;;;26.38;44.45;101199.88;5027114;28;45277;-84
2022/09/06 09:56:39;;;;;;;;;1.00;1.00;;;;;26.36;44.10;101198.25;5030820;28;45467;-83
2022/09/06 09:59:41;;;;;;;;;2.00;2.00;;;;;26.30;43.90;101204.00;5028374;28;46222;-82
2022/09/06 10:02:34;;;;;;;;;3.00;3.00;;;;;26.26;44.48;101205.19;5025710;28;45315;-82
2022/09/06 10:05:17;;;;;;;;;2.00;2.00;;;;;26.28;44.69;101216.75;5028124;28;45507;-84
2022/09/06 10:07:48;;;;;;;;;2.00;2.00;;;;;26.33;44.68;101223.59;5038328;28;45291;-83
2022/09/06 10:10:21;;;;;;;;;3.00;3.00;;;;;26.43;44.25;101225.72;5038188;28;46949;-85
2022/09/06 10:12:47;;;;;;;;;3.00;3.00;;;;;26.51;44.27;101220.69;5039202;28;44756;-84
2022/09/06 10:15:36;;;;;;;;;2.00;2.00;;;;;26.69;43.84;101235.78;5027703;28;45175;-84
2022/09/06 10:18:03;;;;;;;;;5.67;4.00;;;;;26.78;43.58;101235.22;5018161;28;45605;-82
2022/09/06 10:20:45;;;;;;;;;4.00;2.33;;;;;26.86;43.21;101233.81;5001249;28;46876;-82
2022/09/06 10:23:23;;;;;;;;;2.00;2.00;;;;;26.90;43.15;101235.38;5002229;28;45477;-84
2022/09/06 10:25:56;;;;;;;;;4.00;4.00;;;;;26.88;43.06;101234.59;5014904;28;45427;-83
2022/09/06 10:28:42;;;;;;;;;;;;;;;;;;;;;
2022/09/06 10:31:21;;;;;;;;;3.00;3.00;;;;;26.81;42.91;101232.31;5010464;28;74520;-84
2022/09/06 10:34:08;;;;;;;;;2.00;2.00;;;;;26.73;43.02;101231.03;5018640;28;45252;-83
2022/09/06 10:36:36;;;;;;;;;3.67;3.67;;;;;26.62;43.06;101212.81;5001219;28;45415;-84
2022/09/06 10:39:40;;;;;;;;;3.00;3.00;;;;;26.51;43.35;101191.88;5002685;28;45399;-84
2022/09/06 10:42:49;;;;;;;;;3.33;3.00;;;;;26.45;43.40;101170.66;5014988;28;46588;-83
2022/09/06 10:45:55;;;;;;;;;2.00;2.00;;;;;26.43;43.60;101156.38;5008805;28;45338;-84
2022/09/06 10:48:25;;;;;;;;;2.00;2.00;;;;;26.42;43.12;101138.44;5018289;28;45399;-83
2022/09/06 10:50:59;;;;;;;;;3.00;3.00;;;;;26.44;43.35;101136.53;5020434;28;45419;-83
2022/09/06 10:53:37;;;;;;;;;1.33;1.33;;;;;26.46;42.42;101155.31;5020631;28;47197;-84
2022/09/06 10:56:15;;;;;;;;;6.00;6.00;;;;;26.44;41.55;101151.84;5019374;28;45371;-84
2022/09/06 10:58:58;;;;;;;;;1.00;1.00;;;;;26.45;41.25;101154.44;5021277;28;45276;-84
2022/09/06 11:01:40;;;;;;;;;2.00;1.33;;;;;26.51;41.07;101147.78;5020068;28;45266;-84
2022/09/06 11:04:10;;;;;;;;;1.00;1.00;;;;;26.64;40.65;101154.16;5019297;28;48492;-84
2022/09/06 11:06:44;;;;;;;;;3.00;2.33;;;;;26.77;40.61;101151.53;5000233;28;45280;-83
2022/09/06 11:09:21;;;;;;;;;1.67;1.67;;;;;26.91;40.16;101151.50;4999176;28;45434;-84
2022/09/06 11:12:08;;;;;;;;;1.67;1.67;;;;;27.07;40.59;101140.53;5009244;28;45400;-84
2022/09/06 11:14:35;;;;;;;;;3.00;1.67;;;;;27.31;40.49;101139.91;5019810;28;48312;-84
2022/09/06 11:17:21;;;;;;;;;6.00;6.00;;;;;27.49;40.43;101131.41;5018403;28;45487;-84
2022/09/06 11:19:56;;;;;;;;;4.00;3.33;;;;;27.58;40.99;101139.84;4999823;28;45427;-84
2022/09/06 11:22:51;;;;;;;;;3.00;3.00;;;;;27.63;40.89;101124.16;5017269;28;45514;-83
2022/09/06 11:25:54;;;;;;;;;4.00;2.67;;;;;27.69;40.98;101124.63;5004997;28;45571;-84
2022/09/06 11:28:30;;;;;;;;;2.00;2.00;;;;;27.67;40.65;101123.00;5012952;28;45449;-84
2022/09/06 11:30:56;;;;;;;;;3.00;3.00;;;;;27.66;41.10;101113.13;5008207;28;45212;-84
2022/09/06 11:33:38;;;;;;;;;2.00;2.00;;;;;27.69;41.23;101115.59;5019361;28;45551;-85
2022/09/06 11:36:26;;;;;;;;;3.00;3.00;;;;;27.66;40.93;101127.50;5018186;28;47541;-84
2022/09/06 11:39:00;;;;;;;;;2.33;2.33;;;;;27.61;40.77;101121.59;5005300;28;45432;-84
2022/09/06 11:41:39;;;;;;;;;5.00;3.00;;;;;27.65;40.90;101122.22;5018076;28;45568;-84
2022/09/06 11:44:07;;;;;;;;;3.00;3.00;;;;;27.77;41.04;101128.59;4998686;28;45511;-84